sensor_id;sensor_type;location;lat;lon;timestamp;P1;durP1;ratioP1;P2;durP2;ratioP2
37647;SDS011;23490;53.656;10.076;2023-04-24T00:02:14;5.15;;;3.50;;
37647;SDS011;23490;53.656;10.076;2023-04-24T00:04:41;5.30;;;3.30;;
37647;SDS011;23490;53.656;10.076;2023-04-24T00:07:09;6.50;;;4.10;;
37647;SDS011;23490;53.656;10.076;2023-04-24T00:09:45;5.00;;;3.42;;
37647;SDS011;23490;53.656;10.076;2023-04-24T00:12:10;6.60;;;3.85;;
37647;SDS011;23490;53.656;10.076;2023-04-24T00:14:35;7.03;;;4.20;;
37647;SDS011;23490;53.656;10.076;2023-04-24T00:17:01;6.38;;;4.25;;
37647;SDS011;23490;53.656;10.076;2023-04-24T00:19:29;6.00;;;3.92;;
37647;SDS011;23490;53.656;10.076;2023-04-24T00:21:55;7.30;;;4.55;;
37647;SDS011;23490;53.656;10.076;2023-04-24T00:24:20;7.32;;;4.50;;
37647;SDS011;23490;53.656;10.076;2023-04-24T00:26:46;5.90;;;4.00;;
37647;SDS011;23490;53.656;10.076;2023-04-24T00:29:11;9.00;;;4.40;;
37647;SDS011;23490;53.656;10.076;2023-04-24T00:31:37;7.20;;;4.38;;
37647;SDS011;23490;53.656;10.076;2023-04-24T00:34:03;10.82;;;4.78;;
37647;SDS011;23490;53.656;10.076;2023-04-24T00:36:30;6.40;;;4.28;;
37647;SDS011;23490;53.656;10.076;2023-04-24T00:38:56;6.78;;;4.20;;
37647;SDS011;23490;53.656;10.076;2023-04-24T00:41:22;7.75;;;5.20;;
37647;SDS011;23490;53.656;10.076;2023-04-24T00:43:49;8.25;;;4.55;;
37647;SDS011;23490;53.656;10.076;2023-04-24T00:46:16;5.90;;;4.05;;
37647;SDS011;23490;53.656;10.076;2023-04-24T00:48:41;6.50;;;4.70;;
37647;SDS011;23490;53.656;10.076;2023-04-24T00:51:08;7.03;;;4.80;;
37647;SDS011;23490;53.656;10.076;2023-04-24T00:53:34;7.32;;;4.85;;
37647;SDS011;23490;53.656;10.076;2023-04-24T00:55:59;7.68;;;4.40;;
37647;SDS011;23490;53.656;10.076;2023-04-24T00:58:26;7.70;;;4.45;;
37647;SDS011;23490;53.656;10.076;2023-04-24T01:00:51;9.18;;;5.22;;
37647;SDS011;23490;53.656;10.076;2023-04-24T01:03:22;7.93;;;4.60;;
37647;SDS011;23490;53.656;10.076;2023-04-24T01:05:49;7.35;;;5.07;;
37647;SDS011;23490;53.656;10.076;2023-04-24T01:08:16;6.53;;;4.43;;
37647;SDS011;23490;53.656;10.076;2023-04-24T01:10:43;8.55;;;4.78;;
37647;SDS011;23490;53.656;10.076;2023-04-24T01:13:09;7.10;;;4.78;;
37647;SDS011;23490;53.656;10.076;2023-04-24T01:15:35;10.15;;;5.28;;
37647;SDS011;23490;53.656;10.076;2023-04-24T01:18:02;7.70;;;4.75;;
37647;SDS011;23490;53.656;10.076;2023-04-24T01:20:28;9.02;;;4.13;;
37647;SDS011;23490;53.656;10.076;2023-04-24T01:22:54;8.18;;;5.05;;
37647;SDS011;23490;53.656;10.076;2023-04-24T01:25:21;7.22;;;4.82;;
37647;SDS011;23490;53.656;10.076;2023-04-24T01:27:47;8.18;;;4.63;;
37647;SDS011;23490;53.656;10.076;2023-04-24T01:30:13;8.00;;;4.55;;
37647;SDS011;23490;53.656;10.076;2023-04-24T01:32:38;7.97;;;4.93;;
37647;SDS011;23490;53.656;10.076;2023-04-24T01:35:05;7.47;;;4.57;;
37647;SDS011;23490;53.656;10.076;2023-04-24T01:37:31;7.60;;;4.82;;
37647;SDS011;23490;53.656;10.076;2023-04-24T01:39:58;7.35;;;4.75;;
37647;SDS011;23490;53.656;10.076;2023-04-24T01:42:26;5.95;;;4.30;;
37647;SDS011;23490;53.656;10.076;2023-04-24T01:44:52;8.90;;;4.93;;
37647;SDS011;23490;53.656;10.076;2023-04-24T01:47:19;7.20;;;4.90;;
37647;SDS011;23490;53.656;10.076;2023-04-24T01:49:45;6.78;;;4.68;;
37647;SDS011;23490;53.656;10.076;2023-04-24T01:52:11;6.38;;;4.28;;
37647;SDS011;23490;53.656;10.076;2023-04-24T01:54:36;6.22;;;4.43;;
37647;SDS011;23490;53.656;10.076;2023-04-24T01:57:01;7.80;;;4.38;;
37647;SDS011;23490;53.656;10.076;2023-04-24T01:59:27;5.75;;;3.83;;
37647;SDS011;23490;53.656;10.076;2023-04-24T02:01:53;5.57;;;3.50;;
37647;SDS011;23490;53.656;10.076;2023-04-24T02:04:18;5.63;;;3.40;;
37647;SDS011;23490;53.656;10.076;2023-04-24T02:06:44;5.15;;;3.67;;
37647;SDS011;23490;53.656;10.076;2023-04-24T02:09:10;6.47;;;3.60;;
37647;SDS011;23490;53.656;10.076;2023-04-24T02:11:36;5.68;;;3.45;;
37647;SDS011;23490;53.656;10.076;2023-04-24T02:14:01;4.95;;;3.45;;
37647;SDS011;23490;53.656;10.076;2023-04-24T02:16:27;5.30;;;3.30;;
37647;SDS011;23490;53.656;10.076;2023-04-24T02:18:58;4.75;;;3.05;;
37647;SDS011;23490;53.656;10.076;2023-04-24T02:21:27;4.50;;;3.03;;
37647;SDS011;23490;53.656;10.076;2023-04-24T02:23:53;4.70;;;3.03;;
37647;SDS011;23490;53.656;10.076;2023-04-24T02:26:18;4.55;;;2.58;;
37647;SDS011;23490;53.656;10.076;2023-04-24T02:28:44;4.18;;;2.40;;
37647;SDS011;23490;53.656;10.076;2023-04-24T02:31:10;3.45;;;2.10;;
37647;SDS011;23490;53.656;10.076;2023-04-24T02:33:37;5.30;;;2.63;;
37647;SDS011;23490;53.656;10.076;2023-04-24T02:36:02;3.90;;;2.42;;
37647;SDS011;23490;53.656;10.076;2023-04-24T02:38:28;3.67;;;2.45;;
37647;SDS011;23490;53.656;10.076;2023-04-24T02:40:54;3.85;;;2.35;;
37647;SDS011;23490;53.656;10.076;2023-04-24T02:43:19;4.95;;;2.35;;
37647;SDS011;23490;53.656;10.076;2023-04-24T02:45:45;5.43;;;2.30;;
37647;SDS011;23490;53.656;10.076;2023-04-24T02:48:11;4.55;;;2.60;;
37647;SDS011;23490;53.656;10.076;2023-04-24T02:50:36;4.03;;;2.42;;
37647;SDS011;23490;53.656;10.076;2023-04-24T02:53:01;4.50;;;2.72;;
37647;SDS011;23490;53.656;10.076;2023-04-24T02:55:27;5.28;;;2.90;;
37647;SDS011;23490;53.656;10.076;2023-04-24T02:57:52;4.80;;;2.55;;
37647;SDS011;23490;53.656;10.076;2023-04-24T03:00:19;3.83;;;1.95;;
37647;SDS011;23490;53.656;10.076;2023-04-24T03:02:44;4.05;;;2.40;;
37647;SDS011;23490;53.656;10.076;2023-04-24T03:05:10;3.70;;;2.15;;
37647;SDS011;23490;53.656;10.076;2023-04-24T03:07:37;3.70;;;2.22;;
37647;SDS011;23490;53.656;10.076;2023-04-24T03:10:02;2.95;;;2.03;;
37647;SDS011;23490;53.656;10.076;2023-04-24T03:12:28;3.65;;;2.38;;
37647;SDS011;23490;53.656;10.076;2023-04-24T03:14:53;4.57;;;2.20;;
37647;SDS011;23490;53.656;10.076;2023-04-24T03:17:19;4.07;;;2.20;;
37647;SDS011;23490;53.656;10.076;2023-04-24T03:19:44;4.53;;;2.17;;
37647;SDS011;23490;53.656;10.076;2023-04-24T03:22:10;3.28;;;2.22;;
37647;SDS011;23490;53.656;10.076;2023-04-24T03:24:36;4.43;;;2.08;;
37647;SDS011;23490;53.656;10.076;2023-04-24T03:27:01;4.65;;;2.65;;
37647;SDS011;23490;53.656;10.076;2023-04-24T03:29:27;3.20;;;2.00;;
37647;SDS011;23490;53.656;10.076;2023-04-24T03:31:52;4.63;;;2.05;;
37647;SDS011;23490;53.656;10.076;2023-04-24T03:34:18;4.18;;;1.92;;
37647;SDS011;23490;53.656;10.076;2023-04-24T03:36:44;4.22;;;2.20;;
37647;SDS011;23490;53.656;10.076;2023-04-24T03:39:12;2.78;;;1.85;;
37647;SDS011;23490;53.656;10.076;2023-04-24T03:41:38;5.13;;;1.85;;
37647;SDS011;23490;53.656;10.076;2023-04-24T03:44:04;3.95;;;1.90;;
37647;SDS011;23490;53.656;10.076;2023-04-24T03:46:29;3.30;;;1.60;;
37647;SDS011;23490;53.656;10.076;2023-04-24T03:48:55;2.95;;;1.70;;
37647;SDS011;23490;53.656;10.076;2023-04-24T03:51:20;2.50;;;1.50;;
37647;SDS011;23490;53.656;10.076;2023-04-24T03:53:46;1.80;;;1.35;;
37647;SDS011;23490;53.656;10.076;2023-04-24T03:56:12;2.47;;;1.48;;
37647;SDS011;23490;53.656;10.076;2023-04-24T03:58:37;6.28;;;3.03;;
37647;SDS011;23490;53.656;10.076;2023-04-24T04:01:03;2.40;;;1.70;;
37647;SDS011;23490;53.656;10.076;2023-04-24T04:03:28;5.20;;;2.45;;
37647;SDS011;23490;53.656;10.076;2023-04-24T04:05:54;2.75;;;1.63;;
37647;SDS011;23490;53.656;10.076;2023-04-24T04:08:19;4.65;;;1.50;;
37647;SDS011;23490;53.656;10.076;2023-04-24T04:10:45;2.38;;;1.40;;
37647;SDS011;23490;53.656;10.076;2023-04-24T04:13:10;3.17;;;1.67;;
37647;SDS011;23490;53.656;10.076;2023-04-24T04:15:36;2.15;;;1.52;;
37647;SDS011;23490;53.656;10.076;2023-04-24T04:18:04;2.60;;;1.50;;
37647;SDS011;23490;53.656;10.076;2023-04-24T04:20:29;3.03;;;1.48;;
37647;SDS011;23490;53.656;10.076;2023-04-24T04:22:54;4.72;;;1.77;;
37647;SDS011;23490;53.656;10.076;2023-04-24T04:25:20;2.97;;;1.45;;
37647;SDS011;23490;53.656;10.076;2023-04-24T04:27:46;2.58;;;1.55;;
37647;SDS011;23490;53.656;10.076;2023-04-24T04:30:13;3.10;;;1.40;;
37647;SDS011;23490;53.656;10.076;2023-04-24T04:32:39;2.55;;;1.48;;
37647;SDS011;23490;53.656;10.076;2023-04-24T04:35:05;3.42;;;1.23;;
37647;SDS011;23490;53.656;10.076;2023-04-24T04:37:34;2.08;;;1.20;;
37647;SDS011;23490;53.656;10.076;2023-04-24T04:40:03;2.15;;;1.20;;
37647;SDS011;23490;53.656;10.076;2023-04-24T04:42:33;1.88;;;1.05;;
37647;SDS011;23490;53.656;10.076;2023-04-24T04:44:59;1.33;;;1.10;;
37647;SDS011;23490;53.656;10.076;2023-04-24T04:47:25;1.67;;;1.13;;
37647;SDS011;23490;53.656;10.076;2023-04-24T04:49:52;3.10;;;1.58;;
37647;SDS011;23490;53.656;10.076;2023-04-24T04:52:18;2.15;;;0.90;;
37647;SDS011;23490;53.656;10.076;2023-04-24T04:54:44;2.17;;;0.98;;
37647;SDS011;23490;53.656;10.076;2023-04-24T04:57:10;2.38;;;1.10;;
37647;SDS011;23490;53.656;10.076;2023-04-24T04:59:35;1.35;;;0.90;;
37647;SDS011;23490;53.656;10.076;2023-04-24T05:02:01;1.77;;;1.17;;
37647;SDS011;23490;53.656;10.076;2023-04-24T05:04:27;1.50;;;0.98;;
37647;SDS011;23490;53.656;10.076;2023-04-24T05:06:52;2.95;;;0.90;;
37647;SDS011;23490;53.656;10.076;2023-04-24T05:09:19;2.55;;;1.20;;
37647;SDS011;23490;53.656;10.076;2023-04-24T05:11:45;1.42;;;1.00;;
37647;SDS011;23490;53.656;10.076;2023-04-24T05:14:10;1.77;;;1.05;;
37647;SDS011;23490;53.656;10.076;2023-04-24T05:16:37;1.50;;;1.30;;
37647;SDS011;23490;53.656;10.076;2023-04-24T05:19:03;1.75;;;1.10;;
37647;SDS011;23490;53.656;10.076;2023-04-24T05:21:29;1.75;;;0.80;;
37647;SDS011;23490;53.656;10.076;2023-04-24T05:23:54;3.35;;;1.05;;
37647;SDS011;23490;53.656;10.076;2023-04-24T05:26:19;1.88;;;1.00;;
37647;SDS011;23490;53.656;10.076;2023-04-24T05:28:45;1.48;;;1.02;;
37647;SDS011;23490;53.656;10.076;2023-04-24T05:31:10;1.48;;;0.98;;
37647;SDS011;23490;53.656;10.076;2023-04-24T05:33:37;3.08;;;1.25;;
37647;SDS011;23490;53.656;10.076;2023-04-24T05:36:02;2.42;;;0.95;;
37647;SDS011;23490;53.656;10.076;2023-04-24T05:38:28;1.77;;;0.93;;
37647;SDS011;23490;53.656;10.076;2023-04-24T05:40:53;2.08;;;0.90;;
37647;SDS011;23490;53.656;10.076;2023-04-24T05:43:18;1.83;;;1.00;;
37647;SDS011;23490;53.656;10.076;2023-04-24T05:45:44;0.85;;;0.73;;
37647;SDS011;23490;53.656;10.076;2023-04-24T05:48:10;1.60;;;0.95;;
37647;SDS011;23490;53.656;10.076;2023-04-24T05:50:35;2.05;;;1.27;;
37647;SDS011;23490;53.656;10.076;2023-04-24T05:53:00;1.60;;;0.95;;
37647;SDS011;23490;53.656;10.076;2023-04-24T05:55:29;1.50;;;0.90;;
37647;SDS011;23490;53.656;10.076;2023-04-24T05:57:56;2.35;;;0.93;;
37647;SDS011;23490;53.656;10.076;2023-04-24T06:00:21;2.05;;;1.20;;
37647;SDS011;23490;53.656;10.076;2023-04-24T06:02:47;3.15;;;1.00;;
37647;SDS011;23490;53.656;10.076;2023-04-24T06:05:12;3.28;;;1.00;;
37647;SDS011;23490;53.656;10.076;2023-04-24T06:07:37;3.58;;;1.58;;
37647;SDS011;23490;53.656;10.076;2023-04-24T06:10:03;3.60;;;1.25;;
37647;SDS011;23490;53.656;10.076;2023-04-24T06:12:28;3.38;;;0.95;;
37647;SDS011;23490;53.656;10.076;2023-04-24T06:14:54;1.77;;;1.17;;
37647;SDS011;23490;53.656;10.076;2023-04-24T06:17:20;1.95;;;1.08;;
37647;SDS011;23490;53.656;10.076;2023-04-24T06:19:45;3.03;;;1.20;;
37647;SDS011;23490;53.656;10.076;2023-04-24T06:22:11;4.13;;;1.30;;
37647;SDS011;23490;53.656;10.076;2023-04-24T06:24:36;2.72;;;1.40;;
37647;SDS011;23490;53.656;10.076;2023-04-24T06:27:01;1.48;;;1.10;;
37647;SDS011;23490;53.656;10.076;2023-04-24T06:29:27;1.02;;;0.90;;
37647;SDS011;23490;53.656;10.076;2023-04-24T06:31:52;3.28;;;1.20;;
37647;SDS011;23490;53.656;10.076;2023-04-24T06:34:19;1.40;;;0.98;;
37647;SDS011;23490;53.656;10.076;2023-04-24T06:36:46;3.45;;;1.30;;
37647;SDS011;23490;53.656;10.076;2023-04-24T06:39:13;2.03;;;1.08;;
37647;SDS011;23490;53.656;10.076;2023-04-24T06:41:38;2.90;;;0.90;;
37647;SDS011;23490;53.656;10.076;2023-04-24T06:44:04;1.55;;;1.00;;
37647;SDS011;23490;53.656;10.076;2023-04-24T06:46:30;1.70;;;0.90;;
37647;SDS011;23490;53.656;10.076;2023-04-24T06:48:55;1.95;;;0.93;;
37647;SDS011;23490;53.656;10.076;2023-04-24T06:51:24;3.63;;;1.27;;
37647;SDS011;23490;53.656;10.076;2023-04-24T06:53:51;2.28;;;0.98;;
37647;SDS011;23490;53.656;10.076;2023-04-24T06:56:17;1.65;;;1.00;;
37647;SDS011;23490;53.656;10.076;2023-04-24T06:58:42;1.52;;;0.90;;
37647;SDS011;23490;53.656;10.076;2023-04-24T07:01:10;1.80;;;1.10;;
37647;SDS011;23490;53.656;10.076;2023-04-24T07:03:35;2.25;;;1.08;;
37647;SDS011;23490;53.656;10.076;2023-04-24T07:06:01;4.65;;;1.33;;
37647;SDS011;23490;53.656;10.076;2023-04-24T07:08:28;2.13;;;1.10;;
37647;SDS011;23490;53.656;10.076;2023-04-24T07:10:55;2.28;;;1.10;;
37647;SDS011;23490;53.656;10.076;2023-04-24T07:13:21;2.25;;;1.20;;
37647;SDS011;23490;53.656;10.076;2023-04-24T07:15:47;3.08;;;1.10;;
37647;SDS011;23490;53.656;10.076;2023-04-24T07:18:15;1.50;;;0.93;;
37647;SDS011;23490;53.656;10.076;2023-04-24T07:20:41;2.20;;;1.30;;
37647;SDS011;23490;53.656;10.076;2023-04-24T07:23:07;1.92;;;1.25;;
37647;SDS011;23490;53.656;10.076;2023-04-24T07:25:33;2.28;;;1.30;;
37647;SDS011;23490;53.656;10.076;2023-04-24T07:27:58;1.98;;;1.40;;
37647;SDS011;23490;53.656;10.076;2023-04-24T07:30:24;1.95;;;1.30;;
37647;SDS011;23490;53.656;10.076;2023-04-24T07:32:49;2.35;;;1.35;;
37647;SDS011;23490;53.656;10.076;2023-04-24T07:35:15;2.42;;;1.33;;
37647;SDS011;23490;53.656;10.076;2023-04-24T07:37:41;2.92;;;1.70;;
37647;SDS011;23490;53.656;10.076;2023-04-24T07:40:10;4.88;;;2.10;;
37647;SDS011;23490;53.656;10.076;2023-04-24T07:42:37;2.30;;;1.52;;
37647;SDS011;23490;53.656;10.076;2023-04-24T07:45:03;3.72;;;1.63;;
37647;SDS011;23490;53.656;10.076;2023-04-24T07:47:29;2.85;;;1.70;;
37647;SDS011;23490;53.656;10.076;2023-04-24T07:49:56;3.00;;;1.48;;
37647;SDS011;23490;53.656;10.076;2023-04-24T07:52:21;4.18;;;2.42;;
37647;SDS011;23490;53.656;10.076;2023-04-24T07:54:47;3.00;;;2.00;;
37647;SDS011;23490;53.656;10.076;2023-04-24T07:57:13;4.22;;;1.90;;
37647;SDS011;23490;53.656;10.076;2023-04-24T07:59:38;3.38;;;2.00;;
37647;SDS011;23490;53.656;10.076;2023-04-24T08:02:04;2.35;;;1.50;;
37647;SDS011;23490;53.656;10.076;2023-04-24T08:04:32;2.70;;;1.80;;
37647;SDS011;23490;53.656;10.076;2023-04-24T08:06:59;2.10;;;1.50;;
37647;SDS011;23490;53.656;10.076;2023-04-24T08:09:24;2.63;;;1.90;;
37647;SDS011;23490;53.656;10.076;2023-04-24T08:11:49;3.40;;;2.05;;
37647;SDS011;23490;53.656;10.076;2023-04-24T08:14:15;3.70;;;2.30;;
37647;SDS011;23490;53.656;10.076;2023-04-24T08:16:40;3.97;;;1.90;;
37647;SDS011;23490;53.656;10.076;2023-04-24T08:19:06;4.50;;;2.78;;
37647;SDS011;23490;53.656;10.076;2023-04-24T08:21:32;4.03;;;2.60;;
37647;SDS011;23490;53.656;10.076;2023-04-24T08:23:58;4.70;;;2.30;;
37647;SDS011;23490;53.656;10.076;2023-04-24T08:26:23;4.82;;;2.83;;
37647;SDS011;23490;53.656;10.076;2023-04-24T08:28:49;4.55;;;2.65;;
37647;SDS011;23490;53.656;10.076;2023-04-24T08:31:14;3.60;;;2.30;;
37647;SDS011;23490;53.656;10.076;2023-04-24T08:33:39;3.47;;;2.55;;
37647;SDS011;23490;53.656;10.076;2023-04-24T08:36:06;3.63;;;2.70;;
37647;SDS011;23490;53.656;10.076;2023-04-24T08:38:32;3.88;;;2.92;;
37647;SDS011;23490;53.656;10.076;2023-04-24T08:40:58;6.95;;;2.80;;
37647;SDS011;23490;53.656;10.076;2023-04-24T08:43:25;7.57;;;3.55;;
37647;SDS011;23490;53.656;10.076;2023-04-24T08:45:51;4.60;;;2.92;;
37647;SDS011;23490;53.656;10.076;2023-04-24T08:48:18;5.22;;;2.83;;
37647;SDS011;23490;53.656;10.076;2023-04-24T08:50:44;4.40;;;3.05;;
37647;SDS011;23490;53.656;10.076;2023-04-24T08:53:10;3.92;;;2.97;;
37647;SDS011;23490;53.656;10.076;2023-04-24T08:55:36;3.88;;;2.60;;
37647;SDS011;23490;53.656;10.076;2023-04-24T08:58:03;5.78;;;3.10;;
37647;SDS011;23490;53.656;10.076;2023-04-24T09:00:31;3.75;;;2.40;;
37647;SDS011;23490;53.656;10.076;2023-04-24T09:02:57;4.72;;;2.90;;
37647;SDS011;23490;53.656;10.076;2023-04-24T09:05:25;4.18;;;2.88;;
37647;SDS011;23490;53.656;10.076;2023-04-24T09:07:55;4.50;;;2.60;;
37647;SDS011;23490;53.656;10.076;2023-04-24T09:10:22;3.95;;;2.45;;
37647;SDS011;23490;53.656;10.076;2023-04-24T09:12:50;6.32;;;3.30;;
37647;SDS011;23490;53.656;10.076;2023-04-24T09:15:16;6.70;;;3.60;;
37647;SDS011;23490;53.656;10.076;2023-04-24T09:17:42;6.97;;;3.85;;
37647;SDS011;23490;53.656;10.076;2023-04-24T09:20:10;6.55;;;3.60;;
37647;SDS011;23490;53.656;10.076;2023-04-24T09:22:36;5.18;;;3.60;;
37647;SDS011;23490;53.656;10.076;2023-04-24T09:25:05;5.47;;;3.10;;
37647;SDS011;23490;53.656;10.076;2023-04-24T09:27:33;4.35;;;3.20;;
37647;SDS011;23490;53.656;10.076;2023-04-24T09:30:01;4.68;;;3.33;;
37647;SDS011;23490;53.656;10.076;2023-04-24T09:32:28;4.88;;;3.15;;
37647;SDS011;23490;53.656;10.076;2023-04-24T09:35:04;4.82;;;3.50;;
37647;SDS011;23490;53.656;10.076;2023-04-24T09:40:17;4.72;;;2.83;;
37647;SDS011;23490;53.656;10.076;2023-04-24T09:42:44;6.97;;;2.95;;
37647;SDS011;23490;53.656;10.076;2023-04-24T09:45:18;5.45;;;3.00;;
37647;SDS011;23490;53.656;10.076;2023-04-24T09:47:46;4.03;;;2.80;;
37647;SDS011;23490;53.656;10.076;2023-04-24T09:50:16;5.72;;;3.22;;
37647;SDS011;23490;53.656;10.076;2023-04-24T09:52:42;6.07;;;3.30;;
37647;SDS011;23490;53.656;10.076;2023-04-24T09:55:20;4.30;;;2.92;;
37647;SDS011;23490;53.656;10.076;2023-04-24T09:57:49;4.25;;;2.50;;
37647;SDS011;23490;53.656;10.076;2023-04-24T10:00:23;4.43;;;3.22;;
37647;SDS011;23490;53.656;10.076;2023-04-24T10:03:00;5.53;;;3.35;;
37647;SDS011;23490;53.656;10.076;2023-04-24T10:05:27;5.35;;;3.47;;
37647;SDS011;23490;53.656;10.076;2023-04-24T10:07:59;6.40;;;3.40;;
37647;SDS011;23490;53.656;10.076;2023-04-24T10:10:30;4.50;;;3.13;;
37647;SDS011;23490;53.656;10.076;2023-04-24T10:12:57;5.35;;;3.65;;
37647;SDS011;23490;53.656;10.076;2023-04-24T10:15:22;6.20;;;3.55;;
37647;SDS011;23490;53.656;10.076;2023-04-24T10:17:49;6.75;;;4.18;;
37647;SDS011;23490;53.656;10.076;2023-04-24T10:20:22;5.85;;;3.53;;
37647;SDS011;23490;53.656;10.076;2023-04-24T10:22:49;5.72;;;3.67;;
37647;SDS011;23490;53.656;10.076;2023-04-24T10:25:17;6.80;;;4.38;;
37647;SDS011;23490;53.656;10.076;2023-04-24T10:27:45;5.88;;;4.30;;
37647;SDS011;23490;53.656;10.076;2023-04-24T10:30:11;7.70;;;4.70;;
37647;SDS011;23490;53.656;10.076;2023-04-24T10:32:37;7.60;;;4.07;;
37647;SDS011;23490;53.656;10.076;2023-04-24T10:35:03;6.78;;;4.65;;
37647;SDS011;23490;53.656;10.076;2023-04-24T10:37:38;6.80;;;4.45;;
37647;SDS011;23490;53.656;10.076;2023-04-24T10:40:27;7.47;;;4.38;;
37647;SDS011;23490;53.656;10.076;2023-04-24T10:42:59;6.97;;;4.55;;
37647;SDS011;23490;53.656;10.076;2023-04-24T10:45:25;7.03;;;4.32;;
37647;SDS011;23490;53.656;10.076;2023-04-24T10:47:51;6.80;;;4.93;;
37647;SDS011;23490;53.656;10.076;2023-04-24T10:50:18;9.38;;;5.65;;
37647;SDS011;23490;53.656;10.076;2023-04-24T10:52:44;9.57;;;5.57;;
37647;SDS011;23490;53.656;10.076;2023-04-24T10:55:12;9.32;;;5.70;;
37647;SDS011;23490;53.656;10.076;2023-04-24T10:57:39;9.48;;;5.78;;
37647;SDS011;23490;53.656;10.076;2023-04-24T11:00:26;10.13;;;5.70;;
37647;SDS011;23490;53.656;10.076;2023-04-24T11:02:53;8.30;;;5.40;;
37647;SDS011;23490;53.656;10.076;2023-04-24T11:05:19;9.23;;;5.88;;
37647;SDS011;23490;53.656;10.076;2023-04-24T11:10:44;10.10;;;5.78;;
37647;SDS011;23490;53.656;10.076;2023-04-24T11:27:06;8.80;;;5.10;;
37647;SDS011;23490;53.656;10.076;2023-04-24T11:35:01;9.73;;;6.00;;
37647;SDS011;23490;53.656;10.076;2023-04-24T11:37:38;6.35;;;4.95;;
37647;SDS011;23490;53.656;10.076;2023-04-24T11:40:05;9.60;;;5.80;;
37647;SDS011;23490;53.656;10.076;2023-04-24T11:42:39;8.60;;;5.63;;
37647;SDS011;23490;53.656;10.076;2023-04-24T11:45:07;8.65;;;4.65;;
37647;SDS011;23490;53.656;10.076;2023-04-24T11:47:34;8.43;;;4.60;;
37647;SDS011;23490;53.656;10.076;2023-04-24T11:50:02;6.28;;;4.57;;
37647;SDS011;23490;53.656;10.076;2023-04-24T11:52:30;6.88;;;4.55;;
37647;SDS011;23490;53.656;10.076;2023-04-24T11:54:56;6.32;;;4.97;;
37647;SDS011;23490;53.656;10.076;2023-04-24T11:57:22;7.65;;;4.82;;
37647;SDS011;23490;53.656;10.076;2023-04-24T11:59:51;7.22;;;4.55;;
37647;SDS011;23490;53.656;10.076;2023-04-24T12:02:23;7.25;;;4.72;;
37647;SDS011;23490;53.656;10.076;2023-04-24T12:04:49;5.90;;;4.18;;
37647;SDS011;23490;53.656;10.076;2023-04-24T12:07:16;8.13;;;5.28;;
37647;SDS011;23490;53.656;10.076;2023-04-24T12:10:04;9.48;;;4.93;;
37647;SDS011;23490;53.656;10.076;2023-04-24T12:12:30;7.40;;;4.78;;
37647;SDS011;23490;53.656;10.076;2023-04-24T12:14:56;8.13;;;5.75;;
37647;SDS011;23490;53.656;10.076;2023-04-24T12:17:29;8.50;;;5.43;;
37647;SDS011;23490;53.656;10.076;2023-04-24T12:20:04;7.97;;;5.20;;
37647;SDS011;23490;53.656;10.076;2023-04-24T12:22:48;6.88;;;4.57;;
37647;SDS011;23490;53.656;10.076;2023-04-24T12:25:15;9.15;;;4.28;;
37647;SDS011;23490;53.656;10.076;2023-04-24T12:27:45;7.07;;;4.07;;
37647;SDS011;23490;53.656;10.076;2023-04-24T12:30:54;5.70;;;3.90;;
37647;SDS011;23490;53.656;10.076;2023-04-24T12:33:20;7.60;;;3.92;;
37647;SDS011;23490;53.656;10.076;2023-04-24T12:35:48;5.25;;;3.75;;
37647;SDS011;23490;53.656;10.076;2023-04-24T12:38:21;6.75;;;4.05;;
37647;SDS011;23490;53.656;10.076;2023-04-24T12:40:47;7.03;;;4.00;;
37647;SDS011;23490;53.656;10.076;2023-04-24T12:43:19;6.53;;;4.20;;
37647;SDS011;23490;53.656;10.076;2023-04-24T12:45:48;5.68;;;3.80;;
37647;SDS011;23490;53.656;10.076;2023-04-24T12:48:14;5.63;;;4.10;;
37647;SDS011;23490;53.656;10.076;2023-04-24T12:50:40;5.53;;;3.75;;
37647;SDS011;23490;53.656;10.076;2023-04-24T12:53:08;6.63;;;4.22;;
37647;SDS011;23490;53.656;10.076;2023-04-24T12:55:34;5.60;;;3.63;;
37647;SDS011;23490;53.656;10.076;2023-04-24T12:58:00;7.55;;;4.22;;
37647;SDS011;23490;53.656;10.076;2023-04-24T13:00:25;6.38;;;4.40;;
37647;SDS011;23490;53.656;10.076;2023-04-24T13:02:53;7.65;;;4.53;;
37647;SDS011;23490;53.656;10.076;2023-04-24T13:05:19;6.70;;;4.30;;
37647;SDS011;23490;53.656;10.076;2023-04-24T13:07:44;6.05;;;4.30;;
37647;SDS011;23490;53.656;10.076;2023-04-24T13:10:11;5.80;;;4.00;;
37647;SDS011;23490;53.656;10.076;2023-04-24T13:12:38;7.70;;;4.32;;
37647;SDS011;23490;53.656;10.076;2023-04-24T13:15:06;8.52;;;4.47;;
37647;SDS011;23490;53.656;10.076;2023-04-24T13:17:33;6.32;;;4.07;;
37647;SDS011;23490;53.656;10.076;2023-04-24T13:19:59;6.28;;;3.97;;
37647;SDS011;23490;53.656;10.076;2023-04-24T13:22:25;7.75;;;4.53;;
37647;SDS011;23490;53.656;10.076;2023-04-24T13:24:50;7.15;;;4.70;;
37647;SDS011;23490;53.656;10.076;2023-04-24T13:27:16;5.55;;;3.88;;
37647;SDS011;23490;53.656;10.076;2023-04-24T13:29:42;7.00;;;4.22;;
37647;SDS011;23490;53.656;10.076;2023-04-24T13:32:07;6.38;;;4.28;;
37647;SDS011;23490;53.656;10.076;2023-04-24T13:34:34;8.98;;;4.32;;
37647;SDS011;23490;53.656;10.076;2023-04-24T13:37:00;7.22;;;4.10;;
37647;SDS011;23490;53.656;10.076;2023-04-24T13:39:26;6.45;;;3.63;;
37647;SDS011;23490;53.656;10.076;2023-04-24T13:41:52;5.47;;;3.80;;
37647;SDS011;23490;53.656;10.076;2023-04-24T13:44:19;5.47;;;3.60;;
37647;SDS011;23490;53.656;10.076;2023-04-24T13:46:46;6.30;;;3.80;;
37647;SDS011;23490;53.656;10.076;2023-04-24T13:49:13;5.20;;;3.75;;
37647;SDS011;23490;53.656;10.076;2023-04-24T13:51:39;6.72;;;3.58;;
37647;SDS011;23490;53.656;10.076;2023-04-24T13:54:05;6.93;;;3.30;;
37647;SDS011;23490;53.656;10.076;2023-04-24T13:56:31;5.80;;;3.78;;
37647;SDS011;23490;53.656;10.076;2023-04-24T13:58:56;4.88;;;3.45;;
37647;SDS011;23490;53.656;10.076;2023-04-24T14:01:22;8.15;;;3.60;;
37647;SDS011;23490;53.656;10.076;2023-04-24T14:03:51;5.57;;;3.63;;
37647;SDS011;23490;53.656;10.076;2023-04-24T14:06:21;4.40;;;2.92;;
37647;SDS011;23490;53.656;10.076;2023-04-24T14:08:47;4.88;;;3.30;;
37647;SDS011;23490;53.656;10.076;2023-04-24T14:11:14;5.57;;;3.50;;
37647;SDS011;23490;53.656;10.076;2023-04-24T14:13:44;4.57;;;3.40;;
37647;SDS011;23490;53.656;10.076;2023-04-24T14:16:10;3.97;;;3.10;;
37647;SDS011;23490;53.656;10.076;2023-04-24T14:18:36;8.00;;;4.45;;
37647;SDS011;23490;53.656;10.076;2023-04-24T14:21:04;5.53;;;3.33;;
37647;SDS011;23490;53.656;10.076;2023-04-24T14:23:30;4.60;;;2.90;;
37647;SDS011;23490;53.656;10.076;2023-04-24T14:25:56;4.63;;;3.28;;
37647;SDS011;23490;53.656;10.076;2023-04-24T14:28:22;5.97;;;3.35;;
37647;SDS011;23490;53.656;10.076;2023-04-24T14:30:47;5.63;;;3.45;;
37647;SDS011;23490;53.656;10.076;2023-04-24T14:33:13;4.75;;;3.13;;
37647;SDS011;23490;53.656;10.076;2023-04-24T14:35:39;4.88;;;3.30;;
37647;SDS011;23490;53.656;10.076;2023-04-24T14:38:07;5.78;;;2.90;;
37647;SDS011;23490;53.656;10.076;2023-04-24T14:40:32;4.20;;;2.95;;
37647;SDS011;23490;53.656;10.076;2023-04-24T14:42:58;5.00;;;3.10;;
37647;SDS011;23490;53.656;10.076;2023-04-24T14:45:24;4.78;;;3.28;;
37647;SDS011;23490;53.656;10.076;2023-04-24T14:47:49;5.53;;;3.40;;
37647;SDS011;23490;53.656;10.076;2023-04-24T14:50:15;6.18;;;4.10;;
37647;SDS011;23490;53.656;10.076;2023-04-24T14:52:40;10.32;;;5.53;;
37647;SDS011;23490;53.656;10.076;2023-04-24T14:55:07;8.88;;;5.97;;
37647;SDS011;23490;53.656;10.076;2023-04-24T14:57:33;11.50;;;6.75;;